Time;durP1;ratioP1;P1;durP2;ratioP2;P2;SDS_P1;SDS_P2;PMS_P1;PMS_P2;Temp;Humidity;BMP_temperature;BMP_pressure;BME280_temperature;BME280_humidity;BME280_pressure;Samples;Min_cycle;Max_cycle;Signal;HPM_P1;HPM_P2
2022/01/18 00:01:19;;;;;;;8.80;4.80;;;17.20;56.40;18.40;102804.00;;;;5031385;28;20167;-48
2022/01/18 00:03:45;;;;;;;8.07;4.57;;;17.20;56.40;18.40;102816.00;;;;5029796;28;20169;-48
2022/01/18 00:06:10;;;;;;;7.77;4.40;;;17.20;56.50;18.40;102808.00;;;;5029648;28;20217;-49
2022/01/18 00:08:37;;;;;;;10.03;4.83;;;17.20;56.40;18.40;102816.00;;;;5029550;28;20227;-50
2022/01/18 00:11:03;;;;;;;8.70;4.73;;;17.10;56.30;18.30;102824.00;;;;5028222;28;20198;-49
2022/01/18 00:13:46;;;;;;;8.23;4.43;;;17.10;56.40;18.30;102819.00;;;;5028025;28;20172;-49
2022/01/18 00:16:28;;;;;;;8.10;4.73;;;17.10;56.30;18.30;102829.00;;;;5028708;28;20182;-49
2022/01/18 00:18:55;;;;;;;8.00;4.57;;;17.10;56.30;18.30;102819.00;;;;5029647;28;20254;-49
2022/01/18 00:23:57;;;;;;;7.50;4.47;;;17.10;56.20;18.30;102829.00;;;;5029349;28;20167;-48
2022/01/18 00:26:25;;;;;;;8.00;4.53;;;17.00;56.20;18.20;102832.00;;;;5028363;28;20203;-50
2022/01/18 00:28:56;;;;;;;8.90;4.77;;;17.00;56.20;18.20;102840.00;;;;5028917;28;20251;-48
2022/01/18 00:34:11;;;;;;;8.17;4.70;;;17.00;56.40;18.20;102842.00;;;;5028771;28;20351;-49
2022/01/18 00:36:53;;;;;;;8.53;5.10;;;17.00;56.40;18.20;102841.00;;;;5032874;28;20198;-48
2022/01/18 00:39:19;;;;;;;9.03;4.47;;;17.00;56.40;18.20;102848.00;;;;5032900;28;20731;-49
2022/01/18 00:41:44;;;;;;;8.40;4.17;;;16.90;56.30;18.10;102852.00;;;;5028734;28;20274;-49
2022/01/18 00:44:10;;;;;;;8.30;4.33;;;16.90;56.30;18.10;102848.00;;;;5028607;28;20660;-48
2022/01/18 00:46:36;;;;;;;7.77;4.03;;;16.90;56.30;18.10;102856.00;;;;5028110;28;20201;-49
2022/01/18 00:49:03;;;;;;;9.83;4.70;;;16.90;56.30;18.10;102856.00;;;;5028421;28;20175;-49
2022/01/18 00:51:30;;;;;;;7.53;4.33;;;16.90;56.30;18.10;102857.00;;;;5028341;28;20237;-49
2022/01/18 00:53:58;;;;;;;8.17;4.60;;;16.90;56.30;18.10;102859.00;;;;5029124;28;20174;-49
2022/01/18 00:56:30;;;;;;;7.93;4.60;;;16.80;56.10;18.10;102871.00;;;;5028783;28;20219;-48
2022/01/18 00:58:56;;;;;;;7.63;4.43;;;16.90;56.20;18.10;102863.00;;;;5029052;28;20189;-49
2022/01/18 01:01:27;;;;;;;8.43;4.60;;;16.80;56.20;18.00;102863.00;;;;5028686;28;20184;-49
2022/01/18 01:03:55;;;;;;;7.27;4.57;;;16.80;56.20;18.00;102846.00;;;;5033719;28;20167;-48
2022/01/18 01:06:22;;;;;;;8.23;4.50;;;16.80;56.20;18.00;102857.00;;;;5029196;28;20278;-50
2022/01/18 01:08:48;;;;;;;8.00;4.50;;;16.80;56.20;18.00;102861.00;;;;5040776;28;20236;-49
2022/01/18 01:11:14;;;;;;;6.87;4.40;;;16.80;56.20;18.00;102870.00;;;;5047278;28;20199;-49
2022/01/18 01:13:44;;;;;;;8.97;4.60;;;16.80;56.20;18.00;102861.00;;;;5038887;28;20179;-50
2022/01/18 01:16:37;;;;;;;6.70;4.10;;;16.70;56.20;18.00;102869.00;;;;5028315;28;20195;-48
2022/01/18 01:19:30;;;;;;;7.17;4.50;;;16.70;56.20;18.00;102868.00;;;;5026801;28;20175;-49
2022/01/18 01:46:27;;;;;;;8.80;4.40;;;16.60;56.00;17.80;102868.00;;;;5044093;28;20665;-48
2022/01/18 01:48:55;;;;;;;8.93;4.47;;;16.60;56.10;17.80;102886.00;;;;5030832;28;20186;-48
2022/01/18 01:51:28;;;;;;;8.80;4.50;;;16.60;56.10;17.80;102876.00;;;;5029265;28;20202;-50
2022/01/18 01:53:55;;;;;;;8.53;4.70;;;16.50;56.00;17.80;102877.00;;;;5029388;28;20210;-50
2022/01/18 01:56:20;;;;;;;10.00;4.87;;;16.50;56.00;17.70;102881.00;;;;5027506;28;20195;-50
2022/01/18 01:58:46;;;;;;;8.87;4.70;;;16.50;56.00;17.80;102881.00;;;;5028341;28;20229;-50
2022/01/18 02:01:12;;;;;;;7.00;4.40;;;16.50;56.00;17.70;102887.00;;;;5028035;28;20641;-50
2022/01/18 02:03:37;;;;;;;7.93;4.27;;;16.50;56.00;17.70;102888.00;;;;5027396;28;20233;-50
2022/01/18 02:06:03;;;;;;;9.93;5.30;;;16.50;56.40;17.70;102891.00;;;;5027293;28;20191;-50
2022/01/18 02:08:29;;;;;;;8.17;4.37;;;16.40;56.00;17.70;102883.00;;;;5027437;28;20271;-51
2022/01/18 02:10:55;;;;;;;7.53;4.40;;;16.40;56.40;17.70;102882.00;;;;5026274;28;20222;-49
2022/01/18 02:13:20;;;;;;;8.93;4.73;;;16.40;56.20;17.70;102885.00;;;;5027384;28;20167;-48
2022/01/18 02:23:59;;;;;;;8.00;4.50;;;16.40;56.30;17.60;102881.00;;;;5027124;28;20668;-49
2022/01/18 02:26:24;;;;;;;6.70;4.17;;;16.30;57.10;17.60;102881.00;;;;5026739;28;20202;-49
2022/01/18 02:28:50;;;;;;;8.27;4.40;;;16.30;56.90;17.60;102881.00;;;;5027140;28;20285;-48
2022/01/18 02:31:19;;;;;;;7.20;4.70;;;16.30;56.90;17.50;102882.00;;;;5027038;28;20554;-49
2022/01/18 02:33:45;;;;;;;8.90;4.43;;;16.30;57.00;17.50;102886.00;;;;5025971;28;20728;-49
2022/01/18 02:36:11;;;;;;;9.40;4.30;;;16.30;56.80;17.50;102877.00;;;;5027033;28;20183;-50
2022/01/18 02:38:36;;;;;;;7.30;4.20;;;16.20;57.00;17.50;102868.00;;;;5030534;28;20175;-49
2022/01/18 02:41:02;;;;;;;6.50;4.00;;;16.30;56.90;17.50;102876.00;;;;5032447;28;20205;-48
2022/01/18 02:43:48;;;;;;;8.33;4.30;;;16.20;56.90;17.50;102884.00;;;;5031831;28;20175;-49
2022/01/18 02:46:14;;;;;;;8.50;4.60;;;16.20;57.10;17.50;102860.00;;;;5034384;28;20358;-49
2022/01/18 02:48:40;;;;;;;7.37;4.33;;;16.20;57.10;17.50;102862.00;;;;5033335;28;20179;-49
2022/01/18 02:51:05;;;;;;;6.67;4.03;;;16.20;56.90;17.40;102867.00;;;;5034572;28;20198;-49
2022/01/18 02:53:31;;;;;;;7.73;4.37;;;16.20;56.90;17.40;102866.00;;;;5032796;28;20629;-48
2022/01/18 02:55:58;;;;;;;8.50;4.27;;;16.20;57.10;17.40;102861.00;;;;5030759;28;20163;-48
2022/01/18 02:58:28;;;;;;;6.07;3.83;;;16.10;56.90;17.40;102858.00;;;;5030565;28;20269;-49
2022/01/18 03:03:25;;;;;;;7.57;3.90;;;16.10;57.00;17.40;102857.00;;;;5030802;28;20179;-49
2022/01/18 03:05:51;;;;;;;8.37;4.20;;;16.10;56.90;17.40;102858.00;;;;5030591;28;20544;-48
2022/01/18 03:08:17;;;;;;;5.77;3.87;;;16.10;56.90;17.40;102859.00;;;;5031821;28;20179;-49
2022/01/18 03:10:43;;;;;;;7.30;4.07;;;16.10;57.10;17.40;102867.00;;;;5032197;28;20202;-49
2022/01/18 03:13:09;;;;;;;6.80;3.80;;;16.10;56.90;17.40;102885.00;;;;5037367;28;20841;-49
2022/01/18 03:15:35;;;;;;;6.67;3.77;;;16.10;57.00;17.30;102867.00;;;;5032522;28;20208;-48
2022/01/18 03:18:02;;;;;;;6.50;3.60;;;16.10;57.00;17.30;102869.00;;;;5029680;28;20187;-49
2022/01/18 03:20:29;;;;;;;6.90;4.17;;;16.10;56.90;17.30;102869.00;;;;5030550;28;20175;-48
2022/01/18 03:22:54;;;;;;;6.73;4.00;;;16.10;57.00;17.30;102871.00;;;;5030681;28;20190;-48
2022/01/18 03:25:41;;;;;;;6.40;4.00;;;16.10;57.00;17.30;102869.00;;;;5029493;28;20183;-46
2022/01/18 03:28:08;;;;;;;6.43;3.93;;;16.10;57.20;17.30;102875.00;;;;5030549;28;20213;-49
2022/01/18 03:30:39;;;;;;;5.70;3.47;;;16.00;56.80;17.30;102874.00;;;;5030369;28;20234;-48
2022/01/18 03:33:13;;;;;;;7.37;4.00;;;16.00;56.90;17.30;102874.00;;;;5030359;28;20656;-48
2022/01/18 03:35:39;;;;;;;6.07;3.80;;;16.00;57.30;17.20;102870.00;;;;5030021;28;20653;-49
2022/01/18 03:38:05;;;;;;;6.13;4.03;;;16.00;56.90;17.30;102874.00;;;;5046541;28;20169;-49
2022/01/18 03:40:31;;;;;;;6.70;3.90;;;16.00;56.90;17.20;102880.00;;;;5039991;28;20646;-47
2022/01/18 03:42:58;;;;;;;7.30;4.20;;;16.00;57.10;17.20;102868.00;;;;5030409;28;20194;-48
2022/01/18 03:45:29;;;;;;;8.00;4.20;;;15.90;56.90;17.20;102876.00;;;;5029903;28;20171;-50
2022/01/18 03:47:57;;;;;;;6.30;3.60;;;16.00;57.10;17.20;102808.00;;;;5030578;28;20235;-49
2022/01/18 03:50:23;;;;;;;6.87;3.70;;;15.90;57.00;17.20;102878.00;;;;5030019;28;20199;-49
2022/01/18 03:52:48;;;;;;;6.57;4.03;;;15.90;56.70;17.20;102876.00;;;;5029713;28;20654;-49
2022/01/18 03:55:19;;;;;;;6.80;3.77;;;15.90;56.90;17.20;102881.00;;;;5030769;28;20179;-49
2022/01/18 03:57:44;;;;;;;5.53;3.77;;;15.90;57.50;17.20;102859.00;;;;5029247;28;20238;-49
2022/01/18 04:00:17;;;;;;;8.27;4.17;;;15.90;57.00;17.20;102885.00;;;;5011697;28;20270;-49
2022/01/18 04:02:43;;;;;;;6.93;4.23;;;15.90;57.00;17.20;102883.00;;;;5029423;28;20167;-49
2022/01/18 04:05:09;;;;;;;5.47;3.63;;;15.80;57.50;17.10;102885.00;;;;5029440;28;20559;-48
2022/01/18 04:07:34;;;;;;;7.03;3.90;;;15.90;57.20;17.10;102882.00;;;;5028984;28;20199;-49
2022/01/18 04:10:00;;;;;;;7.23;3.90;;;15.90;57.00;17.10;102881.00;;;;5028723;28;20186;-49
2022/01/18 04:12:26;;;;;;;6.10;3.80;;;15.80;57.00;17.10;102880.00;;;;5028871;28;20182;-49
2022/01/18 04:14:51;;;;;;;6.40;3.70;;;15.80;57.40;17.10;102880.00;;;;5028691;28;20715;-48
2022/01/18 04:17:46;;;;;;;6.93;3.80;;;15.80;57.10;17.10;102875.00;;;;5028931;28;20202;-53
2022/01/18 04:28:30;;;;;;;7.00;4.10;;;15.80;57.00;17.00;102897.00;;;;5029149;28;20181;-48
2022/01/18 04:30:55;;;;;;;11.00;4.00;;;15.80;57.50;17.00;102895.00;;;;5028855;28;20229;-48
2022/01/18 04:33:21;;;;;;;10.63;3.73;;;15.80;58.00;17.00;102895.00;;;;5027142;28;20665;-49
2022/01/18 04:35:47;;;;;;;9.40;3.77;;;15.80;57.30;17.00;102881.00;;;;5028615;28;20179;-48
2022/01/18 04:38:12;;;;;;;6.53;3.87;;;15.80;57.50;17.00;102882.00;;;;5028932;28;20167;-49
2022/01/18 04:40:41;;;;;;;6.43;3.90;;;15.70;57.10;17.00;102884.00;;;;5029010;28;20178;-49
2022/01/18 04:43:15;;;;;;;9.67;3.50;;;15.80;57.10;17.00;102880.00;;;;5028778;28;20242;-49
2022/01/18 04:48:28;;;;;;;5.97;3.30;;;16.20;56.60;17.20;102886.00;;;;5028652;28;20174;-49
2022/01/18 04:50:56;;;;;;;5.60;3.47;;;16.60;56.00;17.30;102883.00;;;;5028756;28;20202;-49
2022/01/18 04:53:22;;;;;;;8.93;3.67;;;16.90;55.60;17.50;102890.00;;;;5028504;28;20246;-49
2022/01/18 04:55:54;;;;;;;8.53;3.97;;;17.30;55.20;17.60;102891.00;;;;5028413;28;20175;-51
2022/01/18 04:58:21;;;;;;;4.70;3.33;;;17.50;54.90;17.80;102884.00;;;;5027988;28;20187;-49
2022/01/18 05:00:48;;;;;;;7.80;3.47;;;17.60;54.80;17.90;102895.00;;;;5028927;28;20256;-48
2022/01/18 05:03:14;;;;;;;7.87;3.50;;;17.70;54.80;18.00;102895.00;;;;5010152;28;20210;-48
2022/01/18 05:05:40;;;;;;;7.67;3.50;;;17.70;54.80;18.10;102887.00;;;;5030210;28;20156;-49
2022/01/18 05:08:12;;;;;;;8.47;3.60;;;17.70;54.80;18.10;102891.00;;;;5034007;28;20600;-57
2022/01/18 05:10:38;;;;;;;6.07;3.30;;;17.80;54.90;18.20;102901.00;;;;5029730;28;20245;-49
2022/01/18 05:13:13;;;;;;;5.70;3.20;;;17.80;54.90;18.30;102886.00;;;;5027574;28;20638;-48
2022/01/18 05:15:57;;;;;;;5.77;3.10;;;17.80;54.90;18.30;102903.00;;;;5027518;28;20645;-48
2022/01/18 05:21:12;;;;;;;7.37;3.30;;;17.80;55.20;18.40;102911.00;;;;5028536;28;20250;-48
2022/01/18 05:23:38;;;;;;;7.33;3.23;;;17.80;55.30;18.40;102915.00;;;;5027675;28;20174;-48
2022/01/18 05:26:03;;;;;;;5.10;2.97;;;17.70;55.70;18.40;102912.00;;;;5027965;28;20199;-49
2022/01/18 05:28:29;;;;;;;8.83;3.47;;;17.70;55.90;18.40;102905.00;;;;5045392;28;20178;-50
2022/01/18 05:30:55;;;;;;;7.00;2.93;;;17.70;55.90;18.40;102908.00;;;;5045490;28;20203;-50
2022/01/18 05:33:21;;;;;;;7.90;3.20;;;17.70;56.10;18.40;102822.00;;;;5042154;28;20167;-50
2022/01/18 05:35:47;;;;;;;8.63;3.40;;;17.60;56.10;18.40;102916.00;;;;5037318;28;20248;-50
2022/01/18 05:38:13;;;;;;;5.60;3.17;;;17.60;56.10;18.40;102902.00;;;;5029133;28;20580;-49
2022/01/18 05:40:39;;;;;;;6.50;3.10;;;17.60;56.20;18.40;102881.00;;;;5028420;28;20174;-49
2022/01/18 05:43:05;;;;;;;3.77;2.80;;;17.60;56.30;18.40;102903.00;;;;5028740;28;20217;-49
2022/01/18 05:45:30;;;;;;;5.73;3.10;;;17.50;56.20;18.40;102908.00;;;;5027253;28;20207;-49
2022/01/18 05:47:56;;;;;;;5.03;3.03;;;17.50;56.20;18.40;102903.00;;;;5030949;28;20195;-49
2022/01/18 05:50:22;;;;;;;4.47;2.77;;;17.50;56.40;18.40;102885.00;;;;5035793;28;20683;-49
2022/01/18 05:52:48;;;;;;;3.87;2.93;;;17.50;56.40;18.40;102912.00;;;;5025976;28;20258;-49
2022/01/18 05:55:13;;;;;;;3.77;2.80;;;17.40;56.40;18.40;102912.00;;;;5027225;28;20175;-49
2022/01/18 05:57:39;;;;;;;3.90;2.87;;;17.40;56.40;18.30;102924.00;;;;5026120;28;20711;-49
2022/01/18 06:00:18;;;;;;;4.60;2.70;;;17.40;56.40;18.30;102926.00;;;;5026839;28;20178;-48
2022/01/18 06:02:53;;;;;;;4.27;2.80;;;17.40;57.10;18.30;102924.00;;;;5027387;28;20190;-49
2022/01/18 06:08:03;;;;;;;6.47;2.97;;;17.30;56.50;18.30;102923.00;;;;5027133;28;20893;-49
2022/01/18 06:10:29;;;;;;;3.63;2.80;;;17.30;56.60;18.20;102923.00;;;;5026502;28;20263;-49
2022/01/18 06:12:55;;;;;;;4.20;3.03;;;17.20;56.50;18.20;102929.00;;;;5026469;28;20179;-48
2022/01/18 06:15:20;;;;;;;3.57;2.80;;;17.30;56.60;18.20;102921.00;;;;5027058;28;20171;-49
2022/01/18 06:17:46;;;;;;;3.27;2.97;;;17.20;56.50;18.20;102925.00;;;;5009637;28;20665;-48
2022/01/18 06:20:12;;;;;;;4.60;2.77;;;17.10;56.40;18.20;102932.00;;;;5029654;28;20210;-49
2022/01/18 06:22:38;;;;;;;3.53;2.60;;;17.10;56.50;18.20;102930.00;;;;5031017;28;20214;-49
2022/01/18 06:25:05;;;;;;;4.20;2.67;;;17.10;56.50;18.20;102932.00;;;;5029858;28;20233;-49
2022/01/18 06:27:31;;;;;;;3.40;2.70;;;17.10;56.60;18.20;102935.00;;;;5029508;28;20541;-49
2022/01/18 06:29:56;;;;;;;3.43;2.47;;;17.00;56.40;18.10;102929.00;;;;5029246;28;20173;-48
2022/01/18 06:32:22;;;;;;;6.20;2.90;;;17.00;56.50;18.10;102927.00;;;;5030382;28;20626;-48
2022/01/18 06:34:48;;;;;;;3.70;2.70;;;17.00;56.60;18.10;102935.00;;;;5030471;28;20180;-50
2022/01/18 06:37:14;;;;;;;3.03;2.40;;;17.00;56.70;18.10;102940.00;;;;5037802;28;20190;-49
2022/01/18 06:39:39;;;;;;;3.57;2.53;;;17.00;56.70;18.10;102934.00;;;;5032550;28;20611;-48
2022/01/18 06:42:06;;;;;;;5.23;2.87;;;17.00;56.70;18.00;102928.00;;;;5030059;28;20209;-49
2022/01/18 06:44:31;;;;;;;6.13;2.70;;;17.00;56.90;17.80;102930.00;;;;5030879;28;20232;-49
2022/01/18 06:46:57;;;;;;;14.83;3.20;;;16.90;57.10;18.00;102932.00;;;;5028555;28;20199;-50
2022/01/18 06:49:23;;;;;;;6.43;2.70;;;16.90;57.30;18.00;102942.00;;;;5030465;28;20257;-49
2022/01/18 06:51:49;;;;;;;7.07;2.50;;;16.90;57.10;18.00;102941.00;;;;5030342;28;20203;-50
2022/01/18 06:54:16;;;;;;;9.07;3.07;;;16.90;57.10;18.00;102943.00;;;;5029157;28;20254;-49
2022/01/18 06:56:45;;;;;;;8.23;2.90;;;16.90;57.20;17.90;102945.00;;;;5029801;28;20704;-48
2022/01/18 06:59:11;;;;;;;7.73;2.80;;;16.90;57.20;17.90;102943.00;;;;5030085;28;20163;-49
2022/01/18 07:01:37;;;;;;;8.20;2.60;;;16.80;57.10;17.90;102936.00;;;;5029770;28;20182;-49
2022/01/18 07:04:02;;;;;;;5.50;2.77;;;16.80;57.10;17.90;102962.00;;;;5028910;28;20185;-49
2022/01/18 07:06:28;;;;;;;4.93;2.80;;;16.80;57.20;17.90;102962.00;;;;5029087;28;20677;-49
2022/01/18 07:08:54;;;;;;;6.90;2.90;;;16.80;57.30;17.90;102954.00;;;;5032035;28;20186;-49
2022/01/18 07:11:20;;;;;;;4.33;2.60;;;16.70;57.20;17.80;102963.00;;;;5033064;28;20248;-49
2022/01/18 07:13:46;;;;;;;9.10;2.90;;;16.70;57.30;17.80;102957.00;;;;5031956;28;20179;-48
2022/01/18 07:16:11;;;;;;;13.27;2.90;;;16.70;57.50;17.80;102959.00;;;;5030056;28;20198;-50
2022/01/18 07:18:37;;;;;;;9.40;3.00;;;16.80;57.60;17.80;102958.00;;;;5032541;28;20229;-51
2022/01/18 07:21:03;;;;;;;7.23;2.73;;;16.70;57.40;17.80;102952.00;;;;5046659;28;20171;-50
2022/01/18 07:23:29;;;;;;;9.37;2.90;;;16.70;57.50;17.80;102950.00;;;;5059691;28;20163;-50
2022/01/18 07:25:55;;;;;;;8.53;2.80;;;16.70;57.40;17.80;102948.00;;;;5066010;28;20250;-48
2022/01/18 07:28:21;;;;;;;6.23;2.60;;;16.70;57.50;17.70;102952.00;;;;5039384;28;20182;-49
2022/01/18 07:30:47;;;;;;;4.07;2.73;;;16.60;57.50;17.70;102953.00;;;;5011253;28;20204;-51
2022/01/18 07:33:12;;;;;;;5.53;2.90;;;16.60;57.50;17.70;102944.00;;;;5011162;28;20242;-49
2022/01/18 07:35:38;;;;;;;8.27;2.80;;;16.60;57.50;17.70;102956.00;;;;5011430;28;20180;-50
2022/01/18 07:38:04;;;;;;;7.47;2.80;;;16.60;57.60;17.70;102948.00;;;;5011121;28;20196;-49
2022/01/18 07:40:31;;;;;;;8.67;2.97;;;16.60;57.60;17.70;102950.00;;;;5009270;28;20175;-49
2022/01/18 07:42:59;;;;;;;5.57;2.90;;;16.50;57.60;17.70;102958.00;;;;5010031;28;20171;-49
2022/01/18 07:45:25;;;;;;;6.30;2.67;;;16.50;57.70;17.60;102957.00;;;;5010420;28;20187;-48
2022/01/18 07:47:51;;;;;;;6.90;2.63;;;16.50;57.60;17.60;102963.00;;;;5010266;28;20700;-49
2022/01/18 07:50:17;;;;;;;7.57;2.90;;;16.50;57.70;17.60;102974.00;;;;5010610;28;20229;-49
2022/01/18 07:52:42;;;;;;;5.77;2.97;;;16.40;58.20;17.60;102977.00;;;;5010320;28;20179;-49
2022/01/18 07:55:08;;;;;;;9.73;2.83;;;16.40;57.60;17.60;102979.00;;;;5008666;28;20172;-49
2022/01/18 07:57:34;;;;;;;4.70;2.97;;;16.40;57.60;17.60;102978.00;;;;5009807;28;20682;-49
2022/01/18 08:00:00;;;;;;;6.17;2.83;;;16.40;57.60;17.50;102981.00;;;;5008477;28;20179;-48
2022/01/18 08:02:26;;;;;;;7.43;2.87;;;16.40;57.60;17.50;102986.00;;;;5009638;28;20180;-50
2022/01/18 08:04:51;;;;;;;4.73;2.77;;;16.30;57.50;17.50;102981.00;;;;5015828;28;20179;-51
2022/01/18 08:07:17;;;;;;;4.60;2.70;;;16.30;57.50;17.50;102988.00;;;;5027396;28;20195;-48
2022/01/18 08:09:43;;;;;;;4.50;2.80;;;16.30;57.50;17.50;102988.00;;;;5019576;28;20179;-50
2022/01/18 08:12:09;;;;;;;4.73;2.73;;;16.30;57.50;17.50;102987.00;;;;5009944;28;20196;-48
2022/01/18 08:14:35;;;;;;;6.10;2.80;;;16.30;57.50;17.40;102985.00;;;;5008339;28;20180;-48
2022/01/18 08:17:04;;;;;;;4.30;2.53;;;16.30;57.50;17.40;102983.00;;;;5009298;28;20250;-48
2022/01/18 08:19:33;;;;;;;5.27;2.80;;;16.20;57.40;17.40;102988.00;;;;5010266;28;20665;-49
2022/01/18 08:21:59;;;;;;;6.70;2.90;;;16.20;57.50;17.40;102987.00;;;;5009438;28;20186;-48
2022/01/18 08:24:25;;;;;;;4.07;2.47;;;16.20;58.00;17.40;102985.00;;;;5010376;28;20206;-50
2022/01/18 08:26:51;;;;;;;3.53;2.80;;;16.20;57.40;17.30;102991.00;;;;5008643;28;20191;-49
2022/01/18 08:29:16;;;;;;;2.97;2.37;;;16.20;57.70;17.30;102985.00;;;;5009751;28;20211;-50
2022/01/18 08:31:42;;;;;;;5.07;2.50;;;16.10;57.40;17.30;102988.00;;;;5008959;28;20202;-49
2022/01/18 08:34:08;;;;;;;4.73;2.50;;;16.10;57.40;17.30;102992.00;;;;5008069;28;20645;-49
2022/01/18 08:36:34;;;;;;;3.47;2.60;;;16.20;57.50;17.30;102993.00;;;;5008968;28;20346;-50
2022/01/18 08:39:00;;;;;;;4.73;2.60;;;16.10;57.50;17.30;102994.00;;;;5009368;28;20171;-49
2022/01/18 08:41:27;;;;;;;4.13;2.50;;;16.10;57.50;17.30;102991.00;;;;5008717;28;20180;-49
2022/01/18 08:43:53;;;;;;;3.67;2.80;;;16.10;57.60;17.30;102992.00;;;;5008720;28;20315;-51
2022/01/18 08:46:20;;;;;;;4.30;2.37;;;16.10;58.10;17.20;102990.00;;;;5008635;28;20202;-49
2022/01/18 08:48:45;;;;;;;3.43;2.30;;;16.00;57.70;17.20;102993.00;;;;5008793;28;20250;-50
2022/01/18 08:51:11;;;;;;;3.83;2.60;;;16.00;57.50;17.20;102983.00;;;;5009988;28;20203;-50
2022/01/18 08:53:37;;;;;;;5.13;2.70;;;16.00;57.50;17.10;102982.00;;;;5028136;28;20250;-49
2022/01/18 08:56:05;;;;;;;3.87;2.33;;;16.00;57.60;17.20;102987.00;;;;5027050;28;20370;-49
2022/01/18 08:58:32;;;;;;;4.80;2.60;;;16.00;57.60;17.10;102981.00;;;;5028643;28;20703;-49
2022/01/18 09:00:58;;;;;;;3.50;2.60;;;16.00;57.60;17.10;102999.00;;;;5028181;28;20233;-49
2022/01/18 09:03:23;;;;;;;8.73;2.60;;;16.00;57.50;17.10;102996.00;;;;5024658;28;20189;-49
2022/01/18 09:05:50;;;;;;;9.03;2.80;;;16.00;57.80;17.10;102998.00;;;;5022896;28;20179;-49
2022/01/18 09:08:18;;;;;;;4.37;2.77;;;16.00;58.00;17.10;103003.00;;;;5029305;28;20277;-49
2022/01/18 09:10:44;;;;;;;4.17;2.70;;;16.20;57.40;17.20;103003.00;;;;5029041;28;20230;-49
2022/01/18 09:13:10;;;;;;;5.77;2.50;;;16.40;57.20;17.30;103001.00;;;;5029495;28;20213;-51
2022/01/18 09:15:36;;;;;;;6.07;2.83;;;16.60;56.80;17.40;103005.00;;;;5029272;28;20183;-50
2022/01/18 09:18:01;;;;;;;7.80;2.80;;;16.90;56.40;17.50;103003.00;;;;5046756;28;20191;-49
2022/01/18 09:20:27;;;;;;;4.50;2.50;;;17.20;56.20;17.70;103006.00;;;;5047397;28;20175;-50
2022/01/18 09:22:53;;;;;;;4.97;2.50;;;17.60;55.80;17.90;103013.00;;;;5051148;28;20177;-49
2022/01/18 09:25:27;;;;;;;6.67;2.67;;;17.90;55.40;18.10;103015.00;;;;5022327;28;20179;-48
2022/01/18 09:27:53;;;;;;;4.63;2.47;;;18.10;55.20;18.20;103024.00;;;;5011011;28;20192;-49
2022/01/18 09:30:19;;;;;;;7.90;2.67;;;18.20;55.80;18.40;103019.00;;;;5014233;28;20169;-49
2022/01/18 09:32:46;;;;;;;6.50;2.93;;;18.40;55.40;18.50;103028.00;;;;5009930;28;20168;-49
2022/01/18 09:35:13;;;;;;;8.33;2.70;;;18.50;55.20;18.60;103027.00;;;;5022691;28;20182;-52
2022/01/18 09:37:39;;;;;;;5.90;2.60;;;18.50;55.10;18.70;103028.00;;;;5040446;28;20230;-51
2022/01/18 09:40:06;;;;;;;4.63;2.70;;;18.70;55.30;18.80;103032.00;;;;5031399;28;20173;-46
2022/01/18 09:42:34;;;;;;;4.30;2.50;;;18.80;55.30;18.90;103028.00;;;;5028398;28;20270;-47
2022/01/18 09:45:03;;;;;;;5.57;2.50;;;18.80;55.10;19.00;103032.00;;;;5028721;28;20182;-49
2022/01/18 09:47:29;;;;;;;5.70;2.73;;;18.90;55.20;19.10;103020.00;;;;5027648;28;20667;-50
2022/01/18 09:49:58;;;;;;;5.20;2.90;;;19.00;55.10;19.20;103030.00;;;;5029776;28;20180;-49
2022/01/18 09:52:24;;;;;;;3.93;2.60;;;19.00;55.20;19.20;103028.00;;;;5030589;28;20204;-49
2022/01/18 09:54:50;;;;;;;5.47;2.70;;;19.00;55.10;19.30;103027.00;;;;5035540;28;20165;-48
2022/01/18 09:57:16;;;;;;;3.77;2.73;;;19.00;55.20;19.30;103028.00;;;;5035444;28;20268;-49
2022/01/18 09:59:42;;;;;;;5.20;2.77;;;19.00;55.20;19.40;103024.00;;;;5035510;28;20274;-49
2022/01/18 10:02:10;;;;;;;4.83;2.57;;;19.00;55.40;19.40;103034.00;;;;5035877;28;20599;-49
2022/01/18 10:04:43;;;;;;;3.27;2.47;;;19.00;55.50;19.40;103036.00;;;;5049547;28;20165;-50
2022/01/18 10:07:09;;;;;;;3.00;2.43;;;18.90;55.50;19.40;103029.00;;;;5035310;28;20197;-49
2022/01/18 10:09:34;;;;;;;6.57;3.10;;;18.90;55.80;19.40;103037.00;;;;5035733;28;20549;-49
2022/01/18 10:12:12;;;;;;;3.90;2.70;;;18.90;55.80;19.40;103037.00;;;;5035268;28;20911;-49
2022/01/18 10:14:43;;;;;;;4.83;3.07;;;18.80;55.80;19.40;103041.00;;;;5034927;28;20798;-50
2022/01/18 10:17:10;;;;;;;3.53;2.70;;;18.80;55.90;19.40;103037.00;;;;5034741;28;20791;-49
2022/01/18 10:19:48;;;;;;;4.63;2.60;;;18.70;56.00;19.40;103043.00;;;;5035093;28;20537;-49
2022/01/18 10:22:18;;;;;;;3.67;2.77;;;18.70;56.10;19.40;103030.00;;;;5034606;28;20155;-49
2022/01/18 10:24:44;;;;;;;5.03;2.63;;;18.70;56.20;19.40;103027.00;;;;5034691;28;20181;-49
2022/01/18 10:27:11;;;;;;;4.37;2.83;;;18.70;56.30;19.40;103025.00;;;;5034830;28;20275;-49
2022/01/18 10:29:42;;;;;;;2.90;2.60;;;18.60;56.30;19.40;103026.00;;;;5035143;28;20170;-49
2022/01/18 10:32:15;;;;;;;4.03;2.80;;;18.60;56.30;19.30;103021.00;;;;5034814;28;20196;-48
2022/01/18 10:37:26;;;;;;;3.10;2.60;;;18.50;56.40;19.30;103022.00;;;;5034984;28;20279;-49
2022/01/18 10:39:55;;;;;;;3.10;2.70;;;18.50;56.50;19.30;103005.00;;;;5033635;28;20178;-49
2022/01/18 10:42:38;;;;;;;3.93;2.80;;;18.50;56.60;19.20;103009.00;;;;5036182;28;20192;-49
2022/01/18 10:45:35;;;;;;;4.97;3.07;;;18.50;56.60;19.20;103008.00;;;;5041129;28;20172;-49
2022/01/18 10:48:04;;;;;;;2.97;2.63;;;18.40;56.70;19.20;103011.00;;;;5026230;28;20637;-48
2022/01/18 10:50:35;;;;;;;3.07;2.77;;;18.40;56.90;19.20;103006.00;;;;5035089;28;20210;-48
2022/01/18 10:53:14;;;;;;;3.53;3.00;;;18.40;56.90;19.20;103009.00;;;;5035597;28;20156;-49
2022/01/18 10:55:40;;;;;;;3.33;2.97;;;18.40;56.90;19.20;103004.00;;;;5034894;28;20182;-49
2022/01/18 10:58:14;;;;;;;5.13;3.03;;;18.40;57.00;19.10;102993.00;;;;5034915;28;20212;-49
2022/01/18 11:00:40;;;;;;;4.87;2.73;;;18.40;57.00;19.10;102999.00;;;;5034795;28;20557;-50
2022/01/18 11:03:07;;;;;;;4.60;3.40;;;18.30;57.20;19.10;102996.00;;;;5035077;28;20190;-49
2022/01/18 11:05:35;;;;;;;3.83;3.23;;;18.30;57.30;19.10;102993.00;;;;5029810;28;20638;-48
2022/01/18 11:08:03;;;;;;;4.03;3.00;;;18.30;57.50;19.10;102989.00;;;;5031114;28;20236;-48
2022/01/18 11:10:54;;;;;;;6.50;3.00;;;18.30;57.30;19.10;102983.00;;;;5038641;28;20184;-49
2022/01/18 11:13:23;;;;;;;4.67;2.83;;;18.30;57.50;19.00;102994.00;;;;5041507;28;20246;-50
2022/01/18 11:15:52;;;;;;;3.13;2.83;;;18.20;57.20;19.00;102993.00;;;;5032927;28;20158;-49
2022/01/18 11:18:29;;;;;;;4.47;2.90;;;18.20;57.30;19.00;102981.00;;;;5032934;28;20175;-48
2022/01/18 11:20:55;;;;;;;4.57;3.10;;;18.20;57.30;19.00;102984.00;;;;5033078;28;20163;-50
2022/01/18 11:23:22;;;;;;;4.30;3.30;;;18.20;57.20;18.80;102985.00;;;;5033580;28;20294;-48
2022/01/18 11:25:49;;;;;;;3.70;3.10;;;18.30;57.30;19.10;102981.00;;;;5031139;28;20175;-50
2022/01/18 11:28:15;;;;;;;3.87;3.10;;;18.40;57.00;19.20;102997.00;;;;5031139;28;20664;-50
2022/01/18 11:30:43;;;;;;;3.30;2.87;;;18.80;56.60;19.30;102982.00;;;;5030552;28;20201;-50
2022/01/18 11:33:16;;;;;;;3.37;3.03;;;19.10;56.00;19.50;102979.00;;;;5033683;28;20677;-50
2022/01/18 11:35:48;;;;;;;5.07;3.27;;;19.40;55.50;19.60;102980.00;;;;5035633;28;20183;-49
2022/01/18 11:38:30;;;;;;;3.77;3.37;;;19.60;55.10;19.80;102971.00;;;;5044180;28;20196;-50
2022/01/18 11:40:57;;;;;;;4.43;3.40;;;19.70;54.90;19.90;102975.00;;;;5054502;28;20169;-50
2022/01/18 11:43:44;;;;;;;3.70;3.20;;;19.80;54.90;20.00;102960.00;;;;5042984;28;20362;-49
2022/01/18 11:46:22;;;;;;;4.10;3.23;;;19.80;55.00;20.10;102963.00;;;;5033125;28;20222;-49
2022/01/18 11:48:49;;;;;;;5.97;3.27;;;19.80;54.70;20.10;102965.00;;;;5042329;28;20185;-49
2022/01/18 11:51:18;;;;;;;4.57;3.20;;;19.80;54.80;20.20;102959.00;;;;5020102;28;20230;-51